createdAt,value
2023-01-29T00:02:12.411Z,26.20
2023-01-29T00:04:41.569Z,20.10
2023-01-29T00:07:10.085Z,23.40
2023-01-29T00:09:41.653Z,21.60
2023-01-29T00:12:10.248Z,25.10
2023-01-29T00:14:39.031Z,26.90
2023-01-29T00:17:07.770Z,27.30
2023-01-29T00:19:36.880Z,25.30
2023-01-29T00:22:05.617Z,27.00
2023-01-29T00:24:34.311Z,21.50
2023-01-29T00:27:03.866Z,23.40
2023-01-29T00:29:33.002Z,17.10
2023-01-29T00:32:01.847Z,15.80
2023-01-29T00:34:33.179Z,18.40
2023-01-29T00:37:05.086Z,18.10
2023-01-29T00:39:47.494Z,18.00
2023-01-29T00:42:35.797Z,18.10
2023-01-29T00:45:06.707Z,18.50
2023-01-29T00:47:35.495Z,18.70
2023-01-29T00:50:05.887Z,18.40
2023-01-29T00:52:36.485Z,18.70
2023-01-29T00:55:05.575Z,19.30
2023-01-29T00:57:34.719Z,19.60
2023-01-29T01:00:04.680Z,19.80
2023-01-29T01:02:51.996Z,19.40
2023-01-29T01:05:20.353Z,16.90
2023-01-29T01:07:50.508Z,18.30
2023-01-29T01:10:22.638Z,19.70
2023-01-29T01:12:54.967Z,18.50
2023-01-29T01:15:25.809Z,18.90
2023-01-29T01:17:55.880Z,17.40
2023-01-29T01:20:25.811Z,18.00
2023-01-29T01:22:54.707Z,18.00
2023-01-29T01:25:24.257Z,17.80
2023-01-29T01:27:55.522Z,17.50
2023-01-29T01:30:24.103Z,18.00
2023-01-29T01:32:53.090Z,17.60
2023-01-29T01:35:23.278Z,18.30
2023-01-29T01:37:52.087Z,18.80
2023-01-29T01:40:23.225Z,19.80
2023-01-29T01:42:57.475Z,15.20
2023-01-29T01:45:34.812Z,15.60
2023-01-29T01:48:07.396Z,15.40
2023-01-29T01:50:49.228Z,17.50
2023-01-29T01:53:27.046Z,17.90
2023-01-29T01:55:57.942Z,17.80
2023-01-29T01:58:28.482Z,18.40
2023-01-29T02:00:56.918Z,19.10
2023-01-29T02:03:43.718Z,18.40
2023-01-29T02:06:31.068Z,17.80
2023-01-29T02:09:25.311Z,17.90
2023-01-29T02:11:54.154Z,20.00
2023-01-29T02:14:23.019Z,20.50
2023-01-29T02:16:52.389Z,20.20
2023-01-29T02:19:48.459Z,18.90
2023-01-29T02:22:45.214Z,19.20
2023-01-29T02:25:37.061Z,19.30
2023-01-29T02:28:16.539Z,19.60
2023-01-29T02:30:58.621Z,20.00
2023-01-29T02:34:10.096Z,18.90
2023-01-29T02:36:51.624Z,18.30
2023-01-29T02:39:24.797Z,18.60
2023-01-29T02:42:06.341Z,15.90
2023-01-29T02:44:50.691Z,17.10
2023-01-29T02:47:23.070Z,18.30
2023-01-29T02:50:07.078Z,14.40
2023-01-29T02:52:39.395Z,13.90
2023-01-29T02:55:33.689Z,11.90
2023-01-29T02:58:27.485Z,12.30
2023-01-29T03:00:56.881Z,12.30
2023-01-29T03:03:32.369Z,17.40
2023-01-29T03:06:12.269Z,13.50
2023-01-29T03:09:08.205Z,15.50
2023-01-29T03:11:42.974Z,14.10
2023-01-29T03:14:16.969Z,12.30
2023-01-29T03:16:53.483Z,13.00
2023-01-29T03:19:22.929Z,11.90
2023-01-29T03:21:59.543Z,14.10
2023-01-29T03:24:56.833Z,14.90
2023-01-29T03:27:47.388Z,13.00
2023-01-29T03:30:35.484Z,9.30
2023-01-29T03:33:22.693Z,8.90
2023-01-29T03:36:01.040Z,9.60
2023-01-29T03:38:32.002Z,9.70
2023-01-29T03:41:28.666Z,10.60
2023-01-29T03:44:26.590Z,13.00
2023-01-29T03:46:59.710Z,11.60
2023-01-29T03:49:39.489Z,12.20
2023-01-29T03:52:18.198Z,10.80
2023-01-29T03:55:01.620Z,10.80
2023-01-29T03:57:45.930Z,8.80
2023-01-29T09:18:54.842Z,49.30
2023-01-29T09:21:22.022Z,34.90
2023-01-29T09:23:49.441Z,40.20
2023-01-29T09:26:19.328Z,30.60
2023-01-29T09:28:46.828Z,30.10
2023-01-29T09:31:14.050Z,38.60
2023-01-29T09:33:41.451Z,41.90
2023-01-29T09:36:09.157Z,39.50
2023-01-29T09:38:36.981Z,26.60
2023-01-29T09:41:18.915Z,26.30
2023-01-29T09:43:55.184Z,20.50
2023-01-29T09:46:23.449Z,34.20
2023-01-29T09:49:06.192Z,48.60
2023-01-29T09:51:37.953Z,40.60
2023-01-29T09:54:21.283Z,41.10
2023-01-29T09:56:48.951Z,40.70
2023-01-29T09:59:16.524Z,38.10
2023-01-29T10:01:50.212Z,60.50
2023-01-29T10:04:36.978Z,39.20
2023-01-29T10:07:15.926Z,26.80
2023-01-29T10:10:02.216Z,36.30
2023-01-29T10:13:02.586Z,22.50
2023-01-29T10:15:52.620Z,29.20
2023-01-29T10:18:47.724Z,19.10
2023-01-29T10:21:43.070Z,18.70
2023-01-29T10:24:19.309Z,24.60
2023-01-29T10:26:46.586Z,17.20
2023-01-29T10:29:17.910Z,25.10
2023-01-29T10:31:46.575Z,32.30
2023-01-29T10:34:26.392Z,29.30
2023-01-29T10:36:53.734Z,27.90
2023-01-29T10:39:23.452Z,23.90
2023-01-29T10:42:20.656Z,24.60
2023-01-29T10:45:03.116Z,25.30
2023-01-29T10:47:40.106Z,18.50
2023-01-29T10:50:29.444Z,25.30
2023-01-29T10:53:17.918Z,26.20
2023-01-29T10:56:23.126Z,20.30
2023-01-29T10:58:53.498Z,20.20
2023-01-29T11:01:21.102Z,26.20
2023-01-29T11:03:58.183Z,25.40
2023-01-29T11:06:35.376Z,46.60
2023-01-29T11:09:15.253Z,27.50
2023-01-29T11:12:02.841Z,40.10
2023-01-29T11:14:41.752Z,25.50
2023-01-29T11:17:23.584Z,26.50
2023-01-29T11:19:51.889Z,31.40
2023-01-29T11:22:26.820Z,24.30
2023-01-29T11:25:21.049Z,22.40
2023-01-29T11:27:53.117Z,29.80
2023-01-29T11:30:24.329Z,29.40
2023-01-29T11:33:07.931Z,24.70
2023-01-29T11:35:36.225Z,22.10
2023-01-29T11:38:10.049Z,15.90
2023-01-29T11:40:39.027Z,17.50
2023-01-29T11:43:30.867Z,15.70
2023-01-29T11:46:12.341Z,13.60
2023-01-29T11:48:41.274Z,15.40
2023-01-29T11:51:11.193Z,15.60
2023-01-29T11:53:40.858Z,12.60
2023-01-29T11:56:23.613Z,14.50
2023-01-29T11:58:51.269Z,14.40
2023-01-29T12:01:27.824Z,16.40
2023-01-29T12:03:55.245Z,16.50
2023-01-29T12:06:23.887Z,17.40
2023-01-29T12:08:57.562Z,15.80
2023-01-29T12:11:34.778Z,12.90
2023-01-29T12:14:04.559Z,17.00
2023-01-29T12:16:40.275Z,16.70
2023-01-29T12:19:25.317Z,18.50
2023-01-29T12:21:57.824Z,19.80
2023-01-29T12:24:33.374Z,15.70
2023-01-29T12:27:25.321Z,16.90
2023-01-29T12:29:59.239Z,13.50
2023-01-29T12:32:55.171Z,17.00
2023-01-29T12:35:47.208Z,14.80
2023-01-29T12:38:18.840Z,14.60
2023-01-29T12:40:54.788Z,15.80
2023-01-29T12:43:34.815Z,12.70
2023-01-29T12:46:02.131Z,24.20
2023-01-29T12:48:30.940Z,44.20
2023-01-29T12:51:07.542Z,23.60
2023-01-29T12:53:37.777Z,27.60
2023-01-29T12:56:11.862Z,18.30
2023-01-29T12:58:49.702Z,16.60
2023-01-29T13:01:23.287Z,15.10
2023-01-29T13:04:01.588Z,14.60
2023-01-29T13:06:50.794Z,18.50
2023-01-29T13:09:27.286Z,21.00
2023-01-29T13:12:08.848Z,16.20
2023-01-29T13:14:36.041Z,16.30
2023-01-29T13:17:31.056Z,16.00
2023-01-29T13:20:01.232Z,24.00
2023-01-29T13:22:31.200Z,16.90
2023-01-29T13:25:05.247Z,17.40
2023-01-29T13:27:34.120Z,14.60
2023-01-29T13:30:01.844Z,16.20
2023-01-29T13:32:33.778Z,16.80
2023-01-29T13:35:03.942Z,15.80
2023-01-29T13:37:36.184Z,17.60
2023-01-29T13:40:05.638Z,13.40
2023-01-29T13:42:48.091Z,14.90
2023-01-29T13:45:28.601Z,15.60
2023-01-29T13:48:23.433Z,14.90
2023-01-29T13:50:51.191Z,14.20
2023-01-29T13:53:26.677Z,14.30
2023-01-29T13:55:54.032Z,14.80
2023-01-29T13:58:33.579Z,16.20
2023-01-29T14:01:01.756Z,13.90
2023-01-29T14:03:45.043Z,13.40
2023-01-29T14:06:43.175Z,13.80
2023-01-29T14:09:41.176Z,13.50
2023-01-29T14:12:24.048Z,14.10
2023-01-29T14:14:54.480Z,15.30
2023-01-29T14:17:22.504Z,15.50
2023-01-29T14:19:51.307Z,15.10
2023-01-29T14:22:23.658Z,18.10
2023-01-29T14:24:53.743Z,18.00
2023-01-29T15:03:42.260Z,35.50
2023-01-29T15:06:16.743Z,24.00
2023-01-29T15:08:53.950Z,22.80
2023-01-29T15:11:44.631Z,16.60
2023-01-29T15:14:17.042Z,21.20
2023-01-29T15:16:54.095Z,32.30
2023-01-29T15:19:36.246Z,35.40
2023-01-29T15:22:30.577Z,30.40
2023-01-29T15:25:08.087Z,25.10
2023-01-29T15:27:38.269Z,55.60
2023-01-29T15:30:08.566Z,49.90
2023-01-29T15:32:38.074Z,34.90
2023-01-29T15:35:12.091Z,29.80
2023-01-29T15:37:41.319Z,32.10
2023-01-29T15:40:14.884Z,36.60
2023-01-29T15:42:46.983Z,44.10
2023-01-29T15:45:31.468Z,29.70
2023-01-29T15:48:07.788Z,19.20
2023-01-29T15:50:39.814Z,19.50
2023-01-29T15:53:20.364Z,20.10
2023-01-29T15:55:51.849Z,27.80
2023-01-29T15:58:24.216Z,19.60
2023-01-29T16:00:54.905Z,19.40
2023-01-29T16:03:24.889Z,17.00
2023-01-29T16:05:53.835Z,13.70
2023-01-29T16:08:24.252Z,17.00
2023-01-29T16:10:55.766Z,18.70
2023-01-29T16:13:27.008Z,17.50
2023-01-29T16:16:03.502Z,17.60
2023-01-29T16:18:42.870Z,15.20
2023-01-29T16:21:23.187Z,14.00
2023-01-29T16:23:58.778Z,15.90
2023-01-29T16:26:35.466Z,23.80
2023-01-29T16:29:12.554Z,19.80
2023-01-29T16:31:41.333Z,21.00
2023-01-29T16:34:23.508Z,21.90
2023-01-29T16:36:53.562Z,18.50
2023-01-29T16:39:27.895Z,20.80
2023-01-29T16:42:20.260Z,16.40
2023-01-29T16:47:41.808Z,16.00
2023-01-29T16:50:23.271Z,16.30
2023-01-29T16:52:59.347Z,16.30
2023-01-29T16:55:33.483Z,14.50
2023-01-29T16:58:04.803Z,14.80
2023-01-29T17:00:33.878Z,14.50
2023-01-29T17:03:05.302Z,15.60
2023-01-29T17:05:37.313Z,13.80
2023-01-29T17:08:06.878Z,12.70
2023-01-29T17:10:36.606Z,16.30
2023-01-29T17:13:07.394Z,15.30
2023-01-29T17:15:45.228Z,14.60
2023-01-29T17:18:24.676Z,12.30
2023-01-29T17:20:54.039Z,17.10
2023-01-29T17:23:23.596Z,14.80
2023-01-29T17:25:52.344Z,12.00
2023-01-29T17:28:22.286Z,19.90
2023-01-29T17:31:05.289Z,30.30
2023-01-29T17:33:36.192Z,52.40
2023-01-29T17:36:05.460Z,11.20
2023-01-29T17:38:36.067Z,8.90
2023-01-29T17:41:25.502Z,11.90
2023-01-29T17:43:55.042Z,12.30
2023-01-29T17:46:23.780Z,11.60
2023-01-29T17:48:53.163Z,12.00
2023-01-29T17:51:24.658Z,11.70
2023-01-29T17:53:54.035Z,14.40
2023-01-29T17:56:27.947Z,15.90
2023-01-29T17:58:57.226Z,24.80
2023-01-29T18:01:26.138Z,20.20
2023-01-29T18:03:55.312Z,23.80
2023-01-29T18:06:29.072Z,13.80
2023-01-29T18:08:58.816Z,24.40
2023-01-29T18:11:28.724Z,20.60
2023-01-29T18:13:58.130Z,18.80
2023-01-29T18:16:27.511Z,22.00
2023-01-29T18:18:57.508Z,26.70
2023-01-29T18:21:26.998Z,18.20
2023-01-29T18:23:59.255Z,19.10
2023-01-29T18:28:57.401Z,17.70
2023-01-29T18:31:26.347Z,15.00
2023-01-29T18:33:55.276Z,13.70
2023-01-29T18:36:24.361Z,20.60
2023-01-29T18:38:54.567Z,22.40
2023-01-29T18:41:23.975Z,11.60
2023-01-29T18:43:54.408Z,11.30
2023-01-29T18:46:24.683Z,13.30
2023-01-29T18:48:54.635Z,20.40
2023-01-29T18:51:23.541Z,31.40
2023-01-29T18:53:55.464Z,14.70
2023-01-29T18:56:24.866Z,14.10
2023-01-29T18:58:55.400Z,22.10
2023-01-29T19:01:25.285Z,18.30
2023-01-29T19:03:54.446Z,14.50
2023-01-29T19:06:23.363Z,14.30
2023-01-29T19:08:52.418Z,14.70
2023-01-29T19:11:21.600Z,15.30
2023-01-29T19:13:51.617Z,14.80
2023-01-29T19:16:20.644Z,13.20
2023-01-29T19:18:49.881Z,13.80
2023-01-29T19:21:19.056Z,13.70
2023-01-29T19:23:48.310Z,11.50
2023-01-29T19:26:17.705Z,12.20
2023-01-29T19:28:46.426Z,11.20
2023-01-29T19:31:16.791Z,15.00
2023-01-29T19:33:46.564Z,15.50
2023-01-29T19:36:15.644Z,14.40
2023-01-29T19:38:44.627Z,10.10
2023-01-29T19:41:13.515Z,13.30
2023-01-29T19:43:43.283Z,13.50
2023-01-29T19:46:12.213Z,14.20
2023-01-29T19:48:41.018Z,11.90
2023-01-29T19:51:10.688Z,14.30
2023-01-29T19:53:39.770Z,10.70
2023-01-29T19:56:12.762Z,12.80
2023-01-29T19:58:41.123Z,10.10
2023-01-29T20:01:16.820Z,10.00
2023-01-29T20:03:47.179Z,9.90
2023-01-29T20:06:17.835Z,9.40
2023-01-29T20:08:47.850Z,10.00
2023-01-29T20:11:20.156Z,8.60
2023-01-29T20:13:50.307Z,10.10
2023-01-29T20:16:19.839Z,9.50
2023-01-29T20:18:49.720Z,10.80
2023-01-29T20:21:22.936Z,12.80
2023-01-29T20:23:52.352Z,13.90
2023-01-29T20:26:22.244Z,12.60
2023-01-29T20:28:51.945Z,11.60
2023-01-29T20:31:21.159Z,14.60
2023-01-29T20:33:50.868Z,12.10
2023-01-29T20:36:20.297Z,12.90
2023-01-29T20:38:49.305Z,11.20
2023-01-29T20:41:19.619Z,12.30
2023-01-29T20:43:50.716Z,13.20
2023-01-29T20:46:19.796Z,10.90
2023-01-29T20:48:53.735Z,10.60
2023-01-29T20:51:22.488Z,10.90
2023-01-29T20:53:51.850Z,12.70
2023-01-29T20:56:32.030Z,14.20
2023-01-29T20:59:06.600Z,13.80
2023-01-29T21:01:35.732Z,12.20
2023-01-29T21:04:04.594Z,14.10
2023-01-29T21:06:33.811Z,14.80
2023-01-29T21:09:04.606Z,15.60
2023-01-29T21:11:35.545Z,13.30
2023-01-29T21:14:05.214Z,12.70
2023-01-29T21:16:34.665Z,11.30
2023-01-29T21:19:03.866Z,12.00
2023-01-29T21:21:33.462Z,12.80
2023-01-29T21:24:02.801Z,11.60
2023-01-29T21:26:32.997Z,10.20
2023-01-29T21:29:01.740Z,12.50
2023-01-29T21:31:30.786Z,10.40
2023-01-29T21:33:59.752Z,12.70
2023-01-29T21:36:28.550Z,13.70
2023-01-29T21:38:57.702Z,12.10
2023-01-29T21:41:46.179Z,14.60
2023-01-29T21:44:15.923Z,10.40
2023-01-29T21:46:44.779Z,10.60
2023-01-29T21:49:13.650Z,10.30
2023-01-29T21:51:42.992Z,10.80
2023-01-29T21:54:11.752Z,9.50
2023-01-29T21:56:41.164Z,9.40
2023-01-29T21:59:11.729Z,10.10
2023-01-29T22:01:41.773Z,9.10
2023-01-29T22:04:11.778Z,9.80
2023-01-29T22:06:40.536Z,10.30
2023-01-29T22:09:09.445Z,10.70
2023-01-29T22:11:38.812Z,10.70
2023-01-29T22:14:08.461Z,11.00
2023-01-29T22:16:38.280Z,12.20
2023-01-29T22:19:06.879Z,12.20
2023-01-29T22:21:36.027Z,13.10
2023-01-29T22:24:08.251Z,12.70
2023-01-29T22:26:37.036Z,12.60
2023-01-29T22:29:05.239Z,15.00
2023-01-29T22:31:33.826Z,18.30
2023-01-29T22:34:02.722Z,15.70
2023-01-29T22:36:32.931Z,15.30
2023-01-29T22:39:02.140Z,18.80
2023-01-29T22:41:31.252Z,14.50
2023-01-29T22:44:00.920Z,13.30
2023-01-29T22:46:29.830Z,10.60
2023-01-29T22:48:58.381Z,14.20
2023-01-29T22:51:27.275Z,18.30
2023-01-29T22:53:56.684Z,23.80
2023-01-29T22:56:30.709Z,17.30
2023-01-29T22:59:00.006Z,28.50
2023-01-29T23:01:30.336Z,21.40
2023-01-29T23:04:01.572Z,15.10
2023-01-29T23:06:31.052Z,11.60
2023-01-29T23:09:00.499Z,11.60
2023-01-29T23:11:29.431Z,12.10
2023-01-29T23:13:59.549Z,12.60
2023-01-29T23:16:28.514Z,11.20
2023-01-29T23:18:57.508Z,12.40
2023-01-29T23:21:27.939Z,11.10
2023-01-29T23:23:58.641Z,11.10
2023-01-29T23:29:16.723Z,9.80
2023-01-29T23:31:45.540Z,11.50
2023-01-29T23:34:14.489Z,12.50
2023-01-29T23:36:43.157Z,13.20
2023-01-29T23:39:11.708Z,13.30
2023-01-29T23:41:40.346Z,14.20
2023-01-29T23:44:10.021Z,15.00
2023-01-29T23:46:40.212Z,13.00
2023-01-29T23:49:09.237Z,13.60
2023-01-29T23:51:38.600Z,15.10
2023-01-29T23:54:07.359Z,16.10
2023-01-29T23:56:36.299Z,14.60
2023-01-29T23:59:10.198Z,15.10
